Mobridge Municipal Airport Mobridge US
ICAO: KMBG
IATA: MBG
Category: Medium
Scheduled Services: No

Elevation: 1716 ft
TransAlt. 18000 ft.

Airport Communications:
ASOS:121.425
HURON RDO:122.35
CTAF/UNICOM:122.8

KMBG Zoom In..

If you have problems with the map follow the link
https://www.worldairports.se/pages/airport.php?
ICAO=KMBG

Runways:

(A) RW 12 length 4410 ft width 75 ft
---- / hdg 118

(B) RW 17 length 2399 ft width 250 ft
---- / hdg 171

(C) RW 30 length 4410 ft width 75 ft
---- / hdg 298

(D) RW 35 length 2399 ft width 250 ft
---- / hdg 351

Location; KMBG
Day. 27 / Time. 06.19 Zulu
* Altimeter: 30.00
* Temperature: -02° c. -28.4°f.
* Wind from: 010° Speed 06 kn.
Dewpoint: -04° c.
Visibility: 9 Statute Miles.
Clouds: Broken 600 ft.
Clouds: Overcast 1900 ft.

KMBG 270619Z AUTO 01006KT 9SM BKN006 OVC019 M02/M04 A3000 RMK AO2 CIG 005V008 T10221044


Wind From 010°
Speed 06 kn.

 
 
jpsmedia worldairports.se 2020   terms of use